Terminal Aerodrome Forecast
Issued by NWS

Home | Current Version | Previous Version | Text Only | Print | Product List | Glossary On
Versions: 1 2 3 4 5 6 7 8 9 10 11 12 13 14 15 16 17
708
FTUS43 KGRB 182201 AAB
TAFMTW
TAF AMD
KMTW 182201Z 1822/1918 01010KT P6SM SCT020 OVC100
      TEMPO 1823/1902 6SM -SN BKN020
     FM190200 01013G24KT P6SM SCT150 WS015/03035KT
     FM191000 35013G20KT P6SM SKC=

USA.gov is the U.S. government's official web portal to all federal, state and local government web resources and services.